sensor_id;sensor_type;location;lat;lon;timestamp;P1;durP1;ratioP1;P2;durP2;ratioP2
41141;SDS011;63666;52.284;20.890;2022-12-18T00:01:56;10.00;;;7.70;;
41141;SDS011;63666;52.284;20.890;2022-12-18T00:04:31;9.50;;;7.70;;
41141;SDS011;63666;52.284;20.890;2022-12-18T00:07:04;10.00;;;7.40;;
41141;SDS011;63666;52.284;20.890;2022-12-18T00:09:38;9.00;;;7.50;;
41141;SDS011;63666;52.284;20.890;2022-12-18T00:12:12;9.20;;;7.80;;
41141;SDS011;63666;52.284;20.890;2022-12-18T00:14:48;8.90;;;7.30;;
41141;SDS011;63666;52.284;20.890;2022-12-18T00:17:22;8.40;;;7.30;;
41141;SDS011;63666;52.284;20.890;2022-12-18T00:19:55;8.60;;;7.20;;
41141;SDS011;63666;52.284;20.890;2022-12-18T00:22:29;9.30;;;7.00;;
41141;SDS011;63666;52.284;20.890;2022-12-18T00:25:04;8.80;;;7.20;;
41141;SDS011;63666;52.284;20.890;2022-12-18T00:27:38;8.80;;;7.20;;
41141;SDS011;63666;52.284;20.890;2022-12-18T00:30:13;8.20;;;7.00;;
41141;SDS011;63666;52.284;20.890;2022-12-18T00:32:46;9.20;;;7.80;;
41141;SDS011;63666;52.284;20.890;2022-12-18T00:35:20;9.30;;;7.60;;
41141;SDS011;63666;52.284;20.890;2022-12-18T00:37:54;8.80;;;7.20;;
41141;SDS011;63666;52.284;20.890;2022-12-18T00:43:00;9.40;;;6.80;;
41141;SDS011;63666;52.284;20.890;2022-12-18T00:45:33;9.70;;;7.90;;
41141;SDS011;63666;52.284;20.890;2022-12-18T00:48:07;9.00;;;7.20;;
41141;SDS011;63666;52.284;20.890;2022-12-18T00:50:41;8.90;;;7.00;;
41141;SDS011;63666;52.284;20.890;2022-12-18T00:53:15;9.50;;;7.40;;
41141;SDS011;63666;52.284;20.890;2022-12-18T00:55:49;8.40;;;7.10;;
41141;SDS011;63666;52.284;20.890;2022-12-18T00:58:23;8.90;;;7.20;;
41141;SDS011;63666;52.284;20.890;2022-12-18T01:00:57;9.10;;;7.50;;
41141;SDS011;63666;52.284;20.890;2022-12-18T01:03:30;9.10;;;7.30;;
41141;SDS011;63666;52.284;20.890;2022-12-18T01:06:09;8.60;;;6.80;;
41141;SDS011;63666;52.284;20.890;2022-12-18T01:08:45;8.60;;;6.80;;
41141;SDS011;63666;52.284;20.890;2022-12-18T01:11:21;9.10;;;7.60;;
41141;SDS011;63666;52.284;20.890;2022-12-18T01:13:56;9.60;;;7.60;;
41141;SDS011;63666;52.284;20.890;2022-12-18T01:16:30;9.50;;;7.90;;
41141;SDS011;63666;52.284;20.890;2022-12-18T01:19:03;9.90;;;7.10;;
41141;SDS011;63666;52.284;20.890;2022-12-18T01:21:37;8.40;;;6.90;;
41141;SDS011;63666;52.284;20.890;2022-12-18T01:24:12;9.10;;;7.00;;
41141;SDS011;63666;52.284;20.890;2022-12-18T01:26:46;8.60;;;6.90;;
41141;SDS011;63666;52.284;20.890;2022-12-18T01:29:20;8.80;;;7.30;;
41141;SDS011;63666;52.284;20.890;2022-12-18T01:31:55;9.50;;;7.20;;
41141;SDS011;63666;52.284;20.890;2022-12-18T01:34:29;8.80;;;6.90;;
41141;SDS011;63666;52.284;20.890;2022-12-18T01:37:05;8.70;;;6.90;;
41141;SDS011;63666;52.284;20.890;2022-12-18T01:39:39;9.40;;;7.10;;
41141;SDS011;63666;52.284;20.890;2022-12-18T01:42:14;9.10;;;7.30;;
41141;SDS011;63666;52.284;20.890;2022-12-18T01:45:03;8.60;;;6.70;;
41141;SDS011;63666;52.284;20.890;2022-12-18T01:47:43;7.70;;;6.60;;
41141;SDS011;63666;52.284;20.890;2022-12-18T01:50:22;9.40;;;7.50;;
41141;SDS011;63666;52.284;20.890;2022-12-18T01:53:00;8.90;;;7.20;;
41141;SDS011;63666;52.284;20.890;2022-12-18T01:55:39;8.40;;;6.80;;
41141;SDS011;63666;52.284;20.890;2022-12-18T01:58:19;8.50;;;7.00;;
41141;SDS011;63666;52.284;20.890;2022-12-18T02:00:55;9.60;;;7.10;;
41141;SDS011;63666;52.284;20.890;2022-12-18T02:03:29;8.80;;;7.00;;
41141;SDS011;63666;52.284;20.890;2022-12-18T02:06:09;8.90;;;6.90;;
41141;SDS011;63666;52.284;20.890;2022-12-18T02:08:52;9.00;;;6.90;;
41141;SDS011;63666;52.284;20.890;2022-12-18T02:11:42;8.00;;;6.20;;
41141;SDS011;63666;52.284;20.890;2022-12-18T02:14:31;10.00;;;7.30;;
41141;SDS011;63666;52.284;20.890;2022-12-18T02:17:13;9.80;;;7.60;;
41141;SDS011;63666;52.284;20.890;2022-12-18T02:20:01;8.90;;;7.10;;
41141;SDS011;63666;52.284;20.890;2022-12-18T02:28:33;9.10;;;6.90;;
41141;SDS011;63666;52.284;20.890;2022-12-18T02:31:13;9.50;;;7.20;;
41141;SDS011;63666;52.284;20.890;2022-12-18T02:33:49;9.40;;;7.30;;
41141;SDS011;63666;52.284;20.890;2022-12-18T02:36:27;9.10;;;7.20;;
41141;SDS011;63666;52.284;20.890;2022-12-18T02:39:02;9.20;;;6.80;;
41141;SDS011;63666;52.284;20.890;2022-12-18T02:41:39;8.70;;;7.00;;
41141;SDS011;63666;52.284;20.890;2022-12-18T02:44:14;9.20;;;7.00;;
41141;SDS011;63666;52.284;20.890;2022-12-18T02:46:51;8.40;;;7.10;;
41141;SDS011;63666;52.284;20.890;2022-12-18T02:49:34;9.30;;;7.30;;
41141;SDS011;63666;52.284;20.890;2022-12-18T02:52:28;9.30;;;6.70;;
41141;SDS011;63666;52.284;20.890;2022-12-18T02:55:15;9.50;;;7.00;;
41141;SDS011;63666;52.284;20.890;2022-12-18T02:57:56;9.70;;;7.00;;
41141;SDS011;63666;52.284;20.890;2022-12-18T03:00:39;9.20;;;6.60;;
41141;SDS011;63666;52.284;20.890;2022-12-18T03:03:22;9.20;;;7.10;;
41141;SDS011;63666;52.284;20.890;2022-12-18T03:08:41;9.30;;;6.80;;
41141;SDS011;63666;52.284;20.890;2022-12-18T03:11:17;9.60;;;7.10;;
41141;SDS011;63666;52.284;20.890;2022-12-18T03:14:14;8.70;;;6.80;;
41141;SDS011;63666;52.284;20.890;2022-12-18T03:16:51;9.80;;;7.10;;
41141;SDS011;63666;52.284;20.890;2022-12-18T03:19:29;9.70;;;7.20;;
41141;SDS011;63666;52.284;20.890;2022-12-18T03:22:07;8.10;;;6.70;;
41141;SDS011;63666;52.284;20.890;2022-12-18T03:24:41;9.30;;;6.90;;
41141;SDS011;63666;52.284;20.890;2022-12-18T03:27:19;9.80;;;6.90;;
41141;SDS011;63666;52.284;20.890;2022-12-18T03:29:58;8.40;;;6.80;;
41141;SDS011;63666;52.284;20.890;2022-12-18T03:32:43;8.90;;;7.10;;
41141;SDS011;63666;52.284;20.890;2022-12-18T03:35:21;9.60;;;7.00;;
41141;SDS011;63666;52.284;20.890;2022-12-18T03:37:58;9.00;;;7.10;;
41141;SDS011;63666;52.284;20.890;2022-12-18T03:40:38;10.20;;;7.70;;
41141;SDS011;63666;52.284;20.890;2022-12-18T03:43:24;8.60;;;6.90;;
41141;SDS011;63666;52.284;20.890;2022-12-18T03:46:09;9.00;;;7.10;;
41141;SDS011;63666;52.284;20.890;2022-12-18T03:48:51;9.10;;;7.00;;
41141;SDS011;63666;52.284;20.890;2022-12-18T03:51:36;7.80;;;6.10;;
41141;SDS011;63666;52.284;20.890;2022-12-18T03:54:12;9.20;;;7.20;;
41141;SDS011;63666;52.284;20.890;2022-12-18T03:56:48;9.80;;;7.30;;
41141;SDS011;63666;52.284;20.890;2022-12-18T03:59:28;11.00;;;7.40;;
41141;SDS011;63666;52.284;20.890;2022-12-18T04:02:02;10.00;;;6.80;;
41141;SDS011;63666;52.284;20.890;2022-12-18T04:04:40;9.80;;;7.30;;
41141;SDS011;63666;52.284;20.890;2022-12-18T04:07:15;9.60;;;6.80;;
41141;SDS011;63666;52.284;20.890;2022-12-18T04:09:50;9.10;;;6.80;;
41141;SDS011;63666;52.284;20.890;2022-12-18T04:12:28;9.80;;;6.40;;
41141;SDS011;63666;52.284;20.890;2022-12-18T04:15:02;9.10;;;7.00;;
41141;SDS011;63666;52.284;20.890;2022-12-18T04:17:38;9.10;;;6.80;;
41141;SDS011;63666;52.284;20.890;2022-12-18T04:20:14;9.00;;;7.00;;
41141;SDS011;63666;52.284;20.890;2022-12-18T04:22:48;10.00;;;7.20;;
41141;SDS011;63666;52.284;20.890;2022-12-18T04:25:24;8.80;;;6.50;;
41141;SDS011;63666;52.284;20.890;2022-12-18T04:30:29;9.80;;;7.00;;
41141;SDS011;63666;52.284;20.890;2022-12-18T04:33:03;9.10;;;7.00;;
41141;SDS011;63666;52.284;20.890;2022-12-18T04:35:38;9.00;;;6.90;;
41141;SDS011;63666;52.284;20.890;2022-12-18T04:38:13;8.40;;;6.80;;
41141;SDS011;63666;52.284;20.890;2022-12-18T04:40:47;9.20;;;6.90;;
41141;SDS011;63666;52.284;20.890;2022-12-18T04:43:21;9.00;;;7.30;;
41141;SDS011;63666;52.284;20.890;2022-12-18T04:46:00;9.60;;;6.90;;
41141;SDS011;63666;52.284;20.890;2022-12-18T04:48:35;8.50;;;6.60;;
41141;SDS011;63666;52.284;20.890;2022-12-18T04:51:09;9.00;;;6.90;;
41141;SDS011;63666;52.284;20.890;2022-12-18T04:53:43;9.00;;;6.70;;
41141;SDS011;63666;52.284;20.890;2022-12-18T04:56:17;8.80;;;6.90;;
41141;SDS011;63666;52.284;20.890;2022-12-18T04:58:50;9.70;;;7.10;;
41141;SDS011;63666;52.284;20.890;2022-12-18T05:04:02;8.70;;;6.40;;
41141;SDS011;63666;52.284;20.890;2022-12-18T05:06:36;9.80;;;6.20;;
41141;SDS011;63666;52.284;20.890;2022-12-18T05:09:09;10.00;;;6.80;;
41141;SDS011;63666;52.284;20.890;2022-12-18T05:11:43;8.70;;;6.70;;
41141;SDS011;63666;52.284;20.890;2022-12-18T05:14:20;8.40;;;6.20;;
41141;SDS011;63666;52.284;20.890;2022-12-18T05:16:53;9.20;;;6.30;;
41141;SDS011;63666;52.284;20.890;2022-12-18T05:19:30;8.80;;;6.40;;
41141;SDS011;63666;52.284;20.890;2022-12-18T05:22:04;9.20;;;6.90;;
41141;SDS011;63666;52.284;20.890;2022-12-18T05:24:38;9.80;;;6.80;;
41141;SDS011;63666;52.284;20.890;2022-12-18T05:27:12;10.10;;;6.80;;
41141;SDS011;63666;52.284;20.890;2022-12-18T05:29:46;9.20;;;6.80;;
41141;SDS011;63666;52.284;20.890;2022-12-18T05:32:22;9.30;;;7.70;;
41141;SDS011;63666;52.284;20.890;2022-12-18T05:34:56;10.30;;;6.90;;
41141;SDS011;63666;52.284;20.890;2022-12-18T05:37:30;9.80;;;7.30;;
41141;SDS011;63666;52.284;20.890;2022-12-18T05:40:12;9.10;;;7.00;;
41141;SDS011;63666;52.284;20.890;2022-12-18T05:42:46;9.20;;;6.90;;
41141;SDS011;63666;52.284;20.890;2022-12-18T05:45:20;10.30;;;7.70;;
41141;SDS011;63666;52.284;20.890;2022-12-18T05:47:53;10.00;;;7.40;;
41141;SDS011;63666;52.284;20.890;2022-12-18T05:50:27;9.30;;;7.00;;
41141;SDS011;63666;52.284;20.890;2022-12-18T05:53:01;9.40;;;7.50;;
41141;SDS011;63666;52.284;20.890;2022-12-18T05:55:36;10.50;;;7.50;;
41141;SDS011;63666;52.284;20.890;2022-12-18T05:58:12;9.40;;;7.20;;
41141;SDS011;63666;52.284;20.890;2022-12-18T06:00:47;9.10;;;7.20;;
41141;SDS011;63666;52.284;20.890;2022-12-18T06:03:21;9.00;;;7.10;;
41141;SDS011;63666;52.284;20.890;2022-12-18T06:06:11;9.50;;;7.20;;
41141;SDS011;63666;52.284;20.890;2022-12-18T06:08:46;9.30;;;7.70;;
41141;SDS011;63666;52.284;20.890;2022-12-18T06:11:22;10.40;;;7.30;;
41141;SDS011;63666;52.284;20.890;2022-12-18T06:13:57;9.50;;;7.20;;
41141;SDS011;63666;52.284;20.890;2022-12-18T06:16:31;8.70;;;6.80;;
41141;SDS011;63666;52.284;20.890;2022-12-18T06:19:06;9.60;;;7.30;;
41141;SDS011;63666;52.284;20.890;2022-12-18T06:21:44;9.70;;;7.20;;
41141;SDS011;63666;52.284;20.890;2022-12-18T06:24:18;9.90;;;7.50;;
41141;SDS011;63666;52.284;20.890;2022-12-18T06:26:51;10.90;;;7.70;;
41141;SDS011;63666;52.284;20.890;2022-12-18T06:29:25;10.40;;;7.90;;
41141;SDS011;63666;52.284;20.890;2022-12-18T06:31:59;10.50;;;7.90;;
41141;SDS011;63666;52.284;20.890;2022-12-18T06:34:33;11.00;;;7.40;;
41141;SDS011;63666;52.284;20.890;2022-12-18T06:37:08;10.50;;;7.10;;
41141;SDS011;63666;52.284;20.890;2022-12-18T06:39:42;9.40;;;7.40;;
41141;SDS011;63666;52.284;20.890;2022-12-18T06:42:16;10.10;;;7.30;;
41141;SDS011;63666;52.284;20.890;2022-12-18T06:44:49;9.00;;;7.00;;
41141;SDS011;63666;52.284;20.890;2022-12-18T06:47:23;10.50;;;7.80;;
41141;SDS011;63666;52.284;20.890;2022-12-18T06:49:57;9.60;;;7.60;;
41141;SDS011;63666;52.284;20.890;2022-12-18T06:55:07;9.90;;;7.60;;
41141;SDS011;63666;52.284;20.890;2022-12-18T06:57:41;8.90;;;6.90;;
41141;SDS011;63666;52.284;20.890;2022-12-18T07:00:16;10.20;;;7.40;;
41141;SDS011;63666;52.284;20.890;2022-12-18T07:02:51;10.60;;;7.90;;
41141;SDS011;63666;52.284;20.890;2022-12-18T07:05:24;10.00;;;7.60;;
41141;SDS011;63666;52.284;20.890;2022-12-18T07:07:58;10.30;;;7.80;;
41141;SDS011;63666;52.284;20.890;2022-12-18T07:10:33;12.00;;;8.10;;
41141;SDS011;63666;52.284;20.890;2022-12-18T07:15:38;10.80;;;7.90;;
41141;SDS011;63666;52.284;20.890;2022-12-18T07:18:12;11.50;;;8.00;;
41141;SDS011;63666;52.284;20.890;2022-12-18T07:20:46;10.10;;;7.80;;
41141;SDS011;63666;52.284;20.890;2022-12-18T07:23:19;10.00;;;7.20;;
41141;SDS011;63666;52.284;20.890;2022-12-18T07:25:55;10.60;;;7.70;;
41141;SDS011;63666;52.284;20.890;2022-12-18T07:28:31;9.40;;;7.20;;
41141;SDS011;63666;52.284;20.890;2022-12-18T07:31:06;9.70;;;7.40;;
41141;SDS011;63666;52.284;20.890;2022-12-18T07:33:41;10.80;;;7.40;;
41141;SDS011;63666;52.284;20.890;2022-12-18T07:36:16;10.00;;;7.90;;
41141;SDS011;63666;52.284;20.890;2022-12-18T07:38:50;11.00;;;7.60;;
41141;SDS011;63666;52.284;20.890;2022-12-18T07:41:23;10.20;;;8.20;;
41141;SDS011;63666;52.284;20.890;2022-12-18T07:43:57;11.00;;;7.80;;
41141;SDS011;63666;52.284;20.890;2022-12-18T07:49:04;11.40;;;8.00;;
41141;SDS011;63666;52.284;20.890;2022-12-18T07:51:38;10.20;;;7.70;;
41141;SDS011;63666;52.284;20.890;2022-12-18T07:56:44;10.10;;;7.80;;
41141;SDS011;63666;52.284;20.890;2022-12-18T07:59:18;9.90;;;8.00;;
41141;SDS011;63666;52.284;20.890;2022-12-18T08:01:54;11.40;;;8.60;;
41141;SDS011;63666;52.284;20.890;2022-12-18T08:06:59;10.80;;;7.70;;
41141;SDS011;63666;52.284;20.890;2022-12-18T08:09:32;10.80;;;7.80;;
41141;SDS011;63666;52.284;20.890;2022-12-18T08:12:07;10.70;;;8.10;;
41141;SDS011;63666;52.284;20.890;2022-12-18T08:14:40;10.00;;;7.70;;
41141;SDS011;63666;52.284;20.890;2022-12-18T08:19:46;10.10;;;7.80;;
41141;SDS011;63666;52.284;20.890;2022-12-18T08:24:51;9.70;;;7.30;;
41141;SDS011;63666;52.284;20.890;2022-12-18T08:27:25;11.20;;;8.00;;
41141;SDS011;63666;52.284;20.890;2022-12-18T08:30:00;10.40;;;7.70;;
41141;SDS011;63666;52.284;20.890;2022-12-18T08:32:35;10.30;;;7.80;;
41141;SDS011;63666;52.284;20.890;2022-12-18T08:35:10;11.00;;;8.20;;
41141;SDS011;63666;52.284;20.890;2022-12-18T08:37:48;11.20;;;8.40;;
41141;SDS011;63666;52.284;20.890;2022-12-18T08:40:22;10.80;;;8.30;;
41141;SDS011;63666;52.284;20.890;2022-12-18T08:42:55;11.30;;;7.90;;
41141;SDS011;63666;52.284;20.890;2022-12-18T08:45:46;10.60;;;7.80;;
41141;SDS011;63666;52.284;20.890;2022-12-18T08:48:21;10.50;;;7.80;;
41141;SDS011;63666;52.284;20.890;2022-12-18T08:50:59;10.40;;;8.20;;
41141;SDS011;63666;52.284;20.890;2022-12-18T08:53:32;10.90;;;8.40;;
41141;SDS011;63666;52.284;20.890;2022-12-18T08:56:08;10.90;;;8.30;;
41141;SDS011;63666;52.284;20.890;2022-12-18T08:58:42;10.50;;;7.70;;
41141;SDS011;63666;52.284;20.890;2022-12-18T09:01:18;10.60;;;8.10;;
41141;SDS011;63666;52.284;20.890;2022-12-18T09:03:52;11.10;;;8.50;;
41141;SDS011;63666;52.284;20.890;2022-12-18T09:08:58;11.20;;;8.10;;
41141;SDS011;63666;52.284;20.890;2022-12-18T09:11:33;11.70;;;8.40;;
41141;SDS011;63666;52.284;20.890;2022-12-18T09:14:07;11.10;;;8.50;;
41141;SDS011;63666;52.284;20.890;2022-12-18T09:16:41;10.90;;;7.80;;
41141;SDS011;63666;52.284;20.890;2022-12-18T09:19:15;10.60;;;8.00;;
41141;SDS011;63666;52.284;20.890;2022-12-18T09:21:49;12.10;;;8.20;;
41141;SDS011;63666;52.284;20.890;2022-12-18T09:26:55;10.40;;;7.80;;
41141;SDS011;63666;52.284;20.890;2022-12-18T09:29:29;11.00;;;8.40;;
41141;SDS011;63666;52.284;20.890;2022-12-18T09:32:03;10.90;;;8.00;;
41141;SDS011;63666;52.284;20.890;2022-12-18T09:34:37;11.80;;;8.40;;
41141;SDS011;63666;52.284;20.890;2022-12-18T09:37:11;10.50;;;8.00;;
41141;SDS011;63666;52.284;20.890;2022-12-18T09:39:44;10.50;;;8.20;;
41141;SDS011;63666;52.284;20.890;2022-12-18T09:42:21;11.10;;;7.50;;
41141;SDS011;63666;52.284;20.890;2022-12-18T09:44:55;11.10;;;8.50;;
41141;SDS011;63666;52.284;20.890;2022-12-18T09:47:34;11.00;;;8.00;;
41141;SDS011;63666;52.284;20.890;2022-12-18T09:50:23;11.00;;;8.50;;
41141;SDS011;63666;52.284;20.890;2022-12-18T09:53:02;13.00;;;8.40;;
41141;SDS011;63666;52.284;20.890;2022-12-18T09:55:42;11.50;;;9.40;;
41141;SDS011;63666;52.284;20.890;2022-12-18T09:58:20;12.10;;;10.10;;
41141;SDS011;63666;52.284;20.890;2022-12-18T10:00:58;13.50;;;11.70;;
41141;SDS011;63666;52.284;20.890;2022-12-18T10:03:33;15.20;;;12.90;;
41141;SDS011;63666;52.284;20.890;2022-12-18T10:06:13;14.30;;;12.80;;
41141;SDS011;63666;52.284;20.890;2022-12-18T10:08:53;17.20;;;14.20;;
41141;SDS011;63666;52.284;20.890;2022-12-18T10:11:37;15.90;;;14.20;;
41141;SDS011;63666;52.284;20.890;2022-12-18T10:14:20;17.10;;;15.30;;
41141;SDS011;63666;52.284;20.890;2022-12-18T10:17:06;18.50;;;16.70;;
41141;SDS011;63666;52.284;20.890;2022-12-18T10:19:51;17.10;;;14.70;;
41141;SDS011;63666;52.284;20.890;2022-12-18T10:22:38;17.80;;;15.40;;
41141;SDS011;63666;52.284;20.890;2022-12-18T10:25:23;16.20;;;14.40;;
41141;SDS011;63666;52.284;20.890;2022-12-18T10:28:06;16.20;;;14.30;;
41141;SDS011;63666;52.284;20.890;2022-12-18T10:30:43;18.70;;;14.70;;
41141;SDS011;63666;52.284;20.890;2022-12-18T10:33:20;17.30;;;14.80;;
41141;SDS011;63666;52.284;20.890;2022-12-18T10:35:55;15.60;;;14.00;;
41141;SDS011;63666;52.284;20.890;2022-12-18T10:38:30;16.00;;;14.10;;
41141;SDS011;63666;52.284;20.890;2022-12-18T10:41:06;15.80;;;14.20;;
41141;SDS011;63666;52.284;20.890;2022-12-18T10:44:16;15.70;;;13.70;;
41141;SDS011;63666;52.284;20.890;2022-12-18T10:46:53;16.50;;;13.80;;
41141;SDS011;63666;52.284;20.890;2022-12-18T10:49:49;16.00;;;14.10;;
41141;SDS011;63666;52.284;20.890;2022-12-18T10:52:26;14.90;;;12.70;;
41141;SDS011;63666;52.284;20.890;2022-12-18T10:55:03;15.10;;;13.60;;
41141;SDS011;63666;52.284;20.890;2022-12-18T10:57:39;16.20;;;13.70;;
41141;SDS011;63666;52.284;20.890;2022-12-18T11:00:25;16.30;;;14.20;;
41141;SDS011;63666;52.284;20.890;2022-12-18T11:03:00;16.40;;;13.70;;
41141;SDS011;63666;52.284;20.890;2022-12-18T11:05:35;15.00;;;12.90;;
41141;SDS011;63666;52.284;20.890;2022-12-18T11:08:20;14.50;;;12.80;;
41141;SDS011;63666;52.284;20.890;2022-12-18T11:10:54;14.70;;;13.10;;
41141;SDS011;63666;52.284;20.890;2022-12-18T11:16:01;14.30;;;12.50;;
41141;SDS011;63666;52.284;20.890;2022-12-18T11:18:36;16.70;;;13.10;;
41141;SDS011;63666;52.284;20.890;2022-12-18T11:21:12;14.20;;;12.50;;
41141;SDS011;63666;52.284;20.890;2022-12-18T11:23:49;15.30;;;13.20;;
41141;SDS011;63666;52.284;20.890;2022-12-18T11:26:34;16.10;;;13.20;;
41141;SDS011;63666;52.284;20.890;2022-12-18T11:29:15;13.40;;;11.50;;
41141;SDS011;63666;52.284;20.890;2022-12-18T11:31:51;16.60;;;12.40;;
41141;SDS011;63666;52.284;20.890;2022-12-18T11:34:27;15.50;;;12.20;;
41141;SDS011;63666;52.284;20.890;2022-12-18T11:37:04;15.40;;;11.90;;
41141;SDS011;63666;52.284;20.890;2022-12-18T11:39:42;14.40;;;11.90;;
41141;SDS011;63666;52.284;20.890;2022-12-18T11:42:22;16.00;;;12.30;;
41141;SDS011;63666;52.284;20.890;2022-12-18T11:45:03;16.40;;;12.40;;
41141;SDS011;63666;52.284;20.890;2022-12-18T11:47:54;16.90;;;12.80;;
41141;SDS011;63666;52.284;20.890;2022-12-18T11:50:41;14.80;;;12.70;;
41141;SDS011;63666;52.284;20.890;2022-12-18T11:53:19;16.60;;;11.80;;
41141;SDS011;63666;52.284;20.890;2022-12-18T11:56:00;14.20;;;11.90;;
41141;SDS011;63666;52.284;20.890;2022-12-18T11:58:46;13.90;;;11.70;;
41141;SDS011;63666;52.284;20.890;2022-12-18T12:01:31;15.10;;;12.30;;
41141;SDS011;63666;52.284;20.890;2022-12-18T12:04:31;15.60;;;12.80;;
41141;SDS011;63666;52.284;20.890;2022-12-18T12:07:21;15.60;;;12.50;;
41141;SDS011;63666;52.284;20.890;2022-12-18T12:10:08;16.50;;;12.70;;
41141;SDS011;63666;52.284;20.890;2022-12-18T12:12:59;16.00;;;12.60;;
41141;SDS011;63666;52.284;20.890;2022-12-18T12:15:47;16.20;;;13.00;;
41141;SDS011;63666;52.284;20.890;2022-12-18T12:18:35;15.70;;;12.90;;
41141;SDS011;63666;52.284;20.890;2022-12-18T12:21:18;15.90;;;12.30;;
41141;SDS011;63666;52.284;20.890;2022-12-18T12:24:01;14.60;;;12.40;;
41141;SDS011;63666;52.284;20.890;2022-12-18T12:26:44;15.80;;;12.70;;
41141;SDS011;63666;52.284;20.890;2022-12-18T12:29:30;15.50;;;12.60;;
41141;SDS011;63666;52.284;20.890;2022-12-18T12:32:20;16.00;;;13.40;;
41141;SDS011;63666;52.284;20.890;2022-12-18T12:35:12;16.40;;;13.50;;
41141;SDS011;63666;52.284;20.890;2022-12-18T12:37:58;16.00;;;12.60;;
41141;SDS011;63666;52.284;20.890;2022-12-18T12:40:39;19.00;;;13.20;;
41141;SDS011;63666;52.284;20.890;2022-12-18T12:43:37;16.40;;;13.20;;
41141;SDS011;63666;52.284;20.890;2022-12-18T12:46:36;17.30;;;12.70;;
41141;SDS011;63666;52.284;20.890;2022-12-18T12:49:15;15.70;;;12.50;;
41141;SDS011;63666;52.284;20.890;2022-12-18T12:51:56;15.80;;;12.80;;
41141;SDS011;63666;52.284;20.890;2022-12-18T12:54:33;15.20;;;12.50;;
41141;SDS011;63666;52.284;20.890;2022-12-18T12:57:11;19.20;;;13.90;;
41141;SDS011;63666;52.284;20.890;2022-12-18T12:59:56;16.70;;;12.30;;
41141;SDS011;63666;52.284;20.890;2022-12-18T13:02:35;16.00;;;12.90;;
41141;SDS011;63666;52.284;20.890;2022-12-18T13:05:18;16.90;;;12.50;;
41141;SDS011;63666;52.284;20.890;2022-12-18T13:07:59;14.90;;;11.90;;
41141;SDS011;63666;52.284;20.890;2022-12-18T13:10:38;15.30;;;12.20;;
41141;SDS011;63666;52.284;20.890;2022-12-18T13:13:14;16.60;;;12.50;;
41141;SDS011;63666;52.284;20.890;2022-12-18T13:16:05;15.10;;;12.10;;
41141;SDS011;63666;52.284;20.890;2022-12-18T13:18:50;16.80;;;13.00;;
41141;SDS011;63666;52.284;20.890;2022-12-18T13:21:28;15.80;;;12.90;;
41141;SDS011;63666;52.284;20.890;2022-12-18T13:24:23;15.10;;;12.70;;
41141;SDS011;63666;52.284;20.890;2022-12-18T13:26:59;15.30;;;12.80;;
41141;SDS011;63666;52.284;20.890;2022-12-18T13:29:44;17.80;;;12.40;;
41141;SDS011;63666;52.284;20.890;2022-12-18T13:32:23;16.30;;;12.30;;
41141;SDS011;63666;52.284;20.890;2022-12-18T13:38:22;16.10;;;13.10;;
41141;SDS011;63666;52.284;20.890;2022-12-18T13:41:20;17.50;;;12.80;;
41141;SDS011;63666;52.284;20.890;2022-12-18T13:43:56;16.90;;;12.90;;
41141;SDS011;63666;52.284;20.890;2022-12-18T13:46:46;15.80;;;13.00;;
41141;SDS011;63666;52.284;20.890;2022-12-18T13:49:25;15.90;;;11.50;;
41141;SDS011;63666;52.284;20.890;2022-12-18T13:52:03;14.40;;;11.90;;
41141;SDS011;63666;52.284;20.890;2022-12-18T13:54:52;16.70;;;12.60;;
41141;SDS011;63666;52.284;20.890;2022-12-18T13:57:31;16.50;;;12.40;;
41141;SDS011;63666;52.284;20.890;2022-12-18T14:00:26;16.90;;;12.60;;
41141;SDS011;63666;52.284;20.890;2022-12-18T14:03:00;15.40;;;12.40;;
41141;SDS011;63666;52.284;20.890;2022-12-18T14:05:58;16.30;;;12.60;;
41141;SDS011;63666;52.284;20.890;2022-12-18T14:08:38;15.60;;;12.40;;
41141;SDS011;63666;52.284;20.890;2022-12-18T14:11:20;16.50;;;12.10;;
41141;SDS011;63666;52.284;20.890;2022-12-18T14:13:57;16.50;;;12.80;;
41141;SDS011;63666;52.284;20.890;2022-12-18T14:16:31;17.80;;;12.50;;
41141;SDS011;63666;52.284;20.890;2022-12-18T14:19:08;16.20;;;12.40;;
41141;SDS011;63666;52.284;20.890;2022-12-18T14:21:48;16.10;;;12.90;;
41141;SDS011;63666;52.284;20.890;2022-12-18T14:24:23;17.20;;;13.50;;
41141;SDS011;63666;52.284;20.890;2022-12-18T14:27:19;15.60;;;12.40;;
41141;SDS011;63666;52.284;20.890;2022-12-18T14:29:55;15.60;;;12.50;;
41141;SDS011;63666;52.284;20.890;2022-12-18T14:32:28;16.50;;;12.60;;
41141;SDS011;63666;52.284;20.890;2022-12-18T14:37:46;15.50;;;12.30;;
41141;SDS011;63666;52.284;20.890;2022-12-18T14:40:20;17.00;;;13.10;;
41141;SDS011;63666;52.284;20.890;2022-12-18T14:42:54;17.00;;;13.10;;
41141;SDS011;63666;52.284;20.890;2022-12-18T14:45:39;16.40;;;12.60;;
41141;SDS011;63666;52.284;20.890;2022-12-18T14:48:18;15.00;;;12.80;;
41141;SDS011;63666;52.284;20.890;2022-12-18T14:50:59;17.20;;;13.30;;
41141;SDS011;63666;52.284;20.890;2022-12-18T14:53:37;16.80;;;13.10;;
41141;SDS011;63666;52.284;20.890;2022-12-18T14:56:18;15.50;;;12.60;;
41141;SDS011;63666;52.284;20.890;2022-12-18T14:58:55;16.70;;;12.30;;
41141;SDS011;63666;52.284;20.890;2022-12-18T15:01:31;16.10;;;12.90;;
41141;SDS011;63666;52.284;20.890;2022-12-18T15:04:26;15.30;;;12.20;;
41141;SDS011;63666;52.284;20.890;2022-12-18T15:07:11;17.20;;;12.30;;
41141;SDS011;63666;52.284;20.890;2022-12-18T15:10:10;15.80;;;12.00;;
41141;SDS011;63666;52.284;20.890;2022-12-18T15:12:47;16.30;;;12.60;;
41141;SDS011;63666;52.284;20.890;2022-12-18T15:15:48;16.80;;;13.00;;
41141;SDS011;63666;52.284;20.890;2022-12-18T15:18:29;16.00;;;12.80;;
41141;SDS011;63666;52.284;20.890;2022-12-18T15:21:11;15.80;;;12.40;;
41141;SDS011;63666;52.284;20.890;2022-12-18T15:23:50;16.00;;;12.50;;
41141;SDS011;63666;52.284;20.890;2022-12-18T15:26:23;15.40;;;12.00;;
41141;SDS011;63666;52.284;20.890;2022-12-18T15:28:58;16.90;;;12.80;;
41141;SDS011;63666;52.284;20.890;2022-12-18T15:31:34;15.80;;;12.70;;
41141;SDS011;63666;52.284;20.890;2022-12-18T15:34:17;16.20;;;13.20;;
41141;SDS011;63666;52.284;20.890;2022-12-18T15:36:53;14.90;;;12.30;;
41141;SDS011;63666;52.284;20.890;2022-12-18T15:39:27;15.90;;;11.80;;
41141;SDS011;63666;52.284;20.890;2022-12-18T15:42:01;15.20;;;12.60;;
41141;SDS011;63666;52.284;20.890;2022-12-18T15:44:52;16.20;;;12.80;;
41141;SDS011;63666;52.284;20.890;2022-12-18T15:47:26;15.80;;;12.70;;
41141;SDS011;63666;52.284;20.890;2022-12-18T15:50:00;18.10;;;13.10;;
41141;SDS011;63666;52.284;20.890;2022-12-18T15:52:38;16.10;;;12.40;;
41141;SDS011;63666;52.284;20.890;2022-12-18T15:55:14;14.10;;;12.40;;
41141;SDS011;63666;52.284;20.890;2022-12-18T15:58:07;15.70;;;12.50;;
41141;SDS011;63666;52.284;20.890;2022-12-18T16:00:42;15.30;;;12.20;;
41141;SDS011;63666;52.284;20.890;2022-12-18T16:03:17;14.90;;;12.20;;
41141;SDS011;63666;52.284;20.890;2022-12-18T16:05:51;15.00;;;11.60;;
41141;SDS011;63666;52.284;20.890;2022-12-18T16:08:27;14.80;;;11.40;;
41141;SDS011;63666;52.284;20.890;2022-12-18T16:11:01;14.40;;;12.40;;
41141;SDS011;63666;52.284;20.890;2022-12-18T16:13:35;14.40;;;11.60;;